createdAt,value
2022-08-26T00:02:07.330Z,17.73
2022-08-26T00:04:34.935Z,17.73
2022-08-26T00:07:02.563Z,17.69
2022-08-26T00:09:30.614Z,17.72
2022-08-26T00:11:58.156Z,17.78
2022-08-26T00:14:30.813Z,17.72
2022-08-26T00:16:58.998Z,17.68
2022-08-26T00:19:27.397Z,17.69
2022-08-26T00:21:55.178Z,17.74
2022-08-26T00:24:24.046Z,17.71
2022-08-26T00:26:51.853Z,17.73
2022-08-26T00:29:19.744Z,17.72
2022-08-26T00:31:49.430Z,17.70
2022-08-26T00:34:19.404Z,17.65
2022-08-26T00:36:51.740Z,17.65
2022-08-26T00:39:20.262Z,17.61
2022-08-26T00:41:48.834Z,17.58
2022-08-26T00:44:17.277Z,17.57
2022-08-26T00:46:49.248Z,17.60
2022-08-26T00:49:27.702Z,17.65
2022-08-26T00:52:01.100Z,17.63
2022-08-26T00:54:33.063Z,17.69
2022-08-26T00:57:19.325Z,17.69
2022-08-26T00:59:55.243Z,17.72
2022-08-26T01:02:23.388Z,17.73
2022-08-26T01:04:58.047Z,17.70
2022-08-26T01:07:27.446Z,17.62
2022-08-26T01:09:56.517Z,17.64
2022-08-26T01:12:25.126Z,17.66
2022-08-26T01:14:52.973Z,17.61
2022-08-26T01:17:20.569Z,17.64
2022-08-26T01:19:54.320Z,17.70
2022-08-26T01:22:32.811Z,17.73
2022-08-26T01:25:03.423Z,17.73
2022-08-26T01:27:32.979Z,17.75
2022-08-26T01:30:02.233Z,17.78
2022-08-26T01:32:32.790Z,17.74
2022-08-26T01:35:01.162Z,17.75
2022-08-26T01:37:34.739Z,17.78
2022-08-26T01:40:03.329Z,17.77
2022-08-26T01:42:31.383Z,17.73
2022-08-26T01:45:10.234Z,17.73
2022-08-26T01:47:39.012Z,17.65
2022-08-26T01:50:13.290Z,17.67
2022-08-26T01:52:51.682Z,17.70
2022-08-26T01:55:33.137Z,17.72
2022-08-26T01:58:06.508Z,17.71
2022-08-26T02:00:36.397Z,17.66
2022-08-26T02:03:18.476Z,17.65
2022-08-26T02:05:53.650Z,17.70
2022-08-26T02:08:32.764Z,17.67
2022-08-26T02:11:00.398Z,17.67
2022-08-26T02:13:31.375Z,17.66
2022-08-26T02:16:03.897Z,17.66
2022-08-26T02:18:37.576Z,17.67
2022-08-26T02:21:07.940Z,17.68
2022-08-26T02:23:38.169Z,17.67
2022-08-26T02:26:12.060Z,17.67
2022-08-26T02:28:55.386Z,17.68
2022-08-26T02:31:23.949Z,17.64
2022-08-26T02:33:51.647Z,17.69
2022-08-26T02:36:25.111Z,17.63
2022-08-26T02:38:56.502Z,17.59
2022-08-26T02:41:24.363Z,17.59
2022-08-26T02:43:52.474Z,17.62
2022-08-26T02:46:21.430Z,17.64
2022-08-26T02:48:55.839Z,17.63
2022-08-26T02:51:23.637Z,17.66
2022-08-26T02:53:51.511Z,17.61
2022-08-26T02:56:19.179Z,17.60
2022-08-26T02:58:47.157Z,17.63
2022-08-26T03:01:31.584Z,17.64
2022-08-26T03:04:01.379Z,17.64
2022-08-26T03:06:29.251Z,17.67
2022-08-26T03:08:57.103Z,17.66
2022-08-26T03:11:29.639Z,17.69
2022-08-26T03:14:00.730Z,17.68
2022-08-26T03:16:37.669Z,17.68
2022-08-26T03:19:07.334Z,17.70
2022-08-26T03:21:37.494Z,17.68
2022-08-26T03:24:06.035Z,17.67
2022-08-26T03:26:33.586Z,17.66
2022-08-26T03:29:19.974Z,17.70
2022-08-26T03:31:47.628Z,17.73
2022-08-26T03:34:17.282Z,17.71
2022-08-26T03:36:45.881Z,17.70
2022-08-26T03:39:13.879Z,17.74
2022-08-26T03:41:42.102Z,17.76
2022-08-26T03:44:09.537Z,17.78
2022-08-26T03:46:38.540Z,17.77
2022-08-26T03:49:06.857Z,17.82
2022-08-26T03:51:38.818Z,17.82
2022-08-26T03:54:08.537Z,17.81
2022-08-26T03:56:36.750Z,17.77
2022-08-26T03:59:07.629Z,17.77
2022-08-26T04:01:36.152Z,17.77
2022-08-26T04:04:04.307Z,17.75
2022-08-26T04:06:40.094Z,17.78
2022-08-26T04:09:11.328Z,17.80
2022-08-26T04:11:41.968Z,17.81
2022-08-26T04:14:17.611Z,17.78
2022-08-26T04:16:48.450Z,17.78
2022-08-26T04:19:17.850Z,17.77
2022-08-26T04:21:47.870Z,17.73
2022-08-26T04:24:17.541Z,17.74
2022-08-26T04:26:45.445Z,17.81
2022-08-26T04:29:18.991Z,17.87
2022-08-26T04:31:48.247Z,17.84
2022-08-26T04:34:16.928Z,17.77
2022-08-26T04:36:45.066Z,17.83
2022-08-26T04:39:16.787Z,17.85
2022-08-26T04:41:48.648Z,17.87
2022-08-26T04:44:17.270Z,17.87
2022-08-26T04:46:45.345Z,17.91
2022-08-26T04:49:13.762Z,17.93
2022-08-26T04:51:41.290Z,17.97
2022-08-26T04:54:11.584Z,17.99
2022-08-26T04:56:41.870Z,18.01
2022-08-26T04:59:17.029Z,17.98
2022-08-26T05:01:48.660Z,17.98
2022-08-26T05:04:19.649Z,18.01
2022-08-26T05:06:49.336Z,17.96
2022-08-26T05:09:18.639Z,17.96
2022-08-26T05:11:48.523Z,17.97
2022-08-26T05:14:23.329Z,18.00
2022-08-26T05:16:51.600Z,18.04
2022-08-26T05:19:19.808Z,18.06
2022-08-26T05:21:49.407Z,18.08
2022-08-26T05:24:18.207Z,18.11
2022-08-26T05:26:47.344Z,18.11
2022-08-26T05:29:16.698Z,18.17
2022-08-26T05:31:44.383Z,18.23
2022-08-26T05:34:11.880Z,18.17
2022-08-26T05:36:40.231Z,18.15
2022-08-26T05:39:10.515Z,18.17
